Time;durP1;ratioP1;P1;durP2;ratioP2;P2;SDS_P1;SDS_P2;PMS_P1;PMS_P2;Temp;Humidity;BMP_temperature;BMP_pressure;BME280_temperature;BME280_humidity;BME280_pressure;Samples;Min_cycle;Max_cycle;Signal;HPM_P1;HPM_P2
2022/05/11 00:01:46;;;;;;;5.65;4.40;;;18.50;99.90;;;;;;5118168;28;20182;-69
2022/05/11 00:04:12;;;;;;;4.95;4.45;;;18.50;99.90;;;;;;5137050;27;20224;-70
2022/05/11 00:06:38;;;;;;;4.38;3.97;;;18.50;99.90;;;;;;5117277;28;20294;-69
2022/05/11 00:09:07;;;;;;;4.82;4.32;;;18.50;99.90;;;;;;5117786;28;20669;-69
2022/05/11 00:11:33;;;;;;;4.85;4.35;;;18.40;99.90;;;;;;5117553;28;20208;-69
2022/05/11 00:13:59;;;;;;;6.13;4.70;;;18.60;99.90;;;;;;5117561;28;20582;-68
2022/05/11 00:16:26;;;;;;;4.50;4.10;;;18.50;99.90;;;;;;5117067;28;20173;-70
2022/05/11 00:18:52;;;;;;;5.05;4.35;;;18.50;99.90;;;;;;5117210;28;20154;-69
2022/05/11 00:21:18;;;;;;;5.80;4.82;;;18.40;99.90;;;;;;5117310;28;20227;-70
2022/05/11 00:23:44;;;;;;;4.93;4.47;;;18.50;99.90;;;;;;5117352;28;20158;-69
2022/05/11 00:26:09;;;;;;;4.47;4.07;;;18.50;99.90;;;;;;5120165;28;20253;-69
2022/05/11 00:28:35;;;;;;;6.35;5.10;;;18.50;99.90;;;;;;5118244;28;20647;-69
2022/05/11 00:31:01;;;;;;;4.85;4.45;;;18.50;99.90;;;;;;5125088;28;20194;-69
2022/05/11 00:33:27;;;;;;;5.53;4.80;;;18.50;99.90;;;;;;5117494;28;20163;-69
2022/05/11 00:35:53;;;;;;;7.88;4.63;;;18.50;99.90;;;;;;5116878;28;20170;-69
2022/05/11 00:38:22;;;;;;;4.47;4.07;;;18.40;99.90;;;;;;5117094;28;20233;-68
2022/05/11 00:40:51;;;;;;;4.75;4.25;;;18.30;99.90;;;;;;5116705;28;20177;-69
2022/05/11 00:43:53;;;;;;;6.38;4.50;;;18.30;99.90;;;;;;5117107;28;20166;-68
2022/05/11 00:46:25;;;;;;;5.13;4.30;;;18.30;99.90;;;;;;5109247;28;20636;-68
2022/05/11 00:51:48;;;;;;;5.97;4.30;;;18.20;99.90;;;;;;5114902;28;20242;-69
2022/05/11 00:54:17;;;;;;;4.85;4.28;;;18.20;99.90;;;;;;5116710;28;20215;-68
2022/05/11 00:56:51;;;;;;;5.13;4.63;;;18.20;99.90;;;;;;5116622;28;20612;-69
2022/05/11 00:59:27;;;;;;;5.38;4.68;;;18.10;99.90;;;;;;5116153;28;20594;-68
2022/05/11 01:01:53;;;;;;;4.88;4.43;;;18.00;99.90;;;;;;5116537;28;20263;-68
2022/05/11 01:04:21;;;;;;;8.02;4.20;;;18.00;99.90;;;;;;5116685;28;20244;-67
2022/05/11 01:06:47;;;;;;;5.50;4.20;;;17.90;99.90;;;;;;5119341;28;20715;-68
2022/05/11 01:09:13;;;;;;;4.93;4.40;;;17.90;99.90;;;;;;5124486;28;20225;-68
2022/05/11 01:11:48;;;;;;;5.03;4.53;;;17.80;99.90;;;;;;5122838;28;20158;-68
2022/05/11 01:14:17;;;;;;;6.20;4.88;;;17.80;99.90;;;;;;5127630;28;20154;-69
2022/05/11 01:16:43;;;;;;;5.65;4.68;;;17.70;99.90;;;;;;5116639;28;20201;-68
2022/05/11 01:19:34;;;;;;;5.63;4.80;;;17.70;99.90;;;;;;5116418;28;20517;-66
2022/05/11 01:22:14;;;;;;;4.82;4.35;;;17.60;99.90;;;;;;5116100;28;20162;-68
2022/05/11 01:24:43;;;;;;;6.60;4.18;;;17.60;99.90;;;;;;5132130;27;20184;-66
2022/05/11 01:27:28;;;;;;;5.60;5.05;;;17.60;99.90;;;;;;5117206;28;20178;-68
2022/05/11 01:29:56;;;;;;;5.47;4.78;;;17.60;99.90;;;;;;5117556;28;20194;-69
2022/05/11 01:32:22;;;;;;;5.03;4.40;;;17.50;99.90;;;;;;5116722;28;20174;-68
2022/05/11 01:34:53;;;;;;;6.45;4.50;;;17.50;99.90;;;;;;5116649;28;20596;-68
2022/05/11 01:37:19;;;;;;;7.35;4.97;;;17.50;99.90;;;;;;5116407;28;20185;-67
2022/05/11 01:39:45;;;;;;;6.50;4.68;;;17.40;99.90;;;;;;5116789;28;20174;-68
2022/05/11 01:42:12;;;;;;;4.85;4.15;;;17.40;99.90;;;;;;5117468;28;20162;-66
2022/05/11 01:44:38;;;;;;;5.60;5.00;;;17.30;99.90;;;;;;5116155;28;20158;-68
2022/05/11 01:47:04;;;;;;;6.45;4.63;;;17.40;99.90;;;;;;5115703;28;20154;-67
2022/05/11 01:49:31;;;;;;;5.03;4.53;;;17.30;99.90;;;;;;5116433;28;20201;-67
2022/05/11 01:51:56;;;;;;;5.18;4.68;;;17.40;99.90;;;;;;5116800;28;20154;-67
2022/05/11 01:54:23;;;;;;;7.68;4.82;;;17.30;99.90;;;;;;5116476;28;20176;-67
2022/05/11 01:56:49;;;;;;;5.93;4.70;;;17.20;99.90;;;;;;5117320;28;20162;-67
2022/05/11 01:59:14;;;;;;;4.88;4.38;;;17.00;99.90;;;;;;5118554;28;20166;-68
2022/05/11 02:01:41;;;;;;;5.95;5.18;;;17.00;99.90;;;;;;5117570;28;20235;-67
2022/05/11 02:07:49;;;;;;;8.50;5.03;;;17.00;99.90;;;;;;5124040;28;20177;-67
2022/05/11 02:09:37;;;;;;;5.40;4.90;;;16.80;99.90;;;;;;5129224;28;20227;-66
2022/05/11 02:12:04;;;;;;;5.78;4.93;;;16.80;99.90;;;;;;5118912;28;20207;-67
2022/05/11 02:14:29;;;;;;;7.93;4.95;;;16.80;99.90;;;;;;5115612;28;20305;-68
2022/05/11 02:16:55;;;;;;;5.45;4.95;;;16.80;99.90;;;;;;5116931;28;20677;-67
2022/05/11 02:19:21;;;;;;;4.97;4.47;;;16.70;99.90;;;;;;5115670;28;20189;-68
2022/05/11 02:21:46;;;;;;;9.75;7.25;;;16.70;99.90;;;;;;5115918;28;20582;-68
2022/05/11 02:24:12;;;;;;;5.15;4.50;;;16.70;99.90;;;;;;5115144;28;20261;-68
2022/05/11 02:26:38;;;;;;;6.43;4.88;;;16.70;99.90;;;;;;5115951;28;20170;-67
2022/05/11 02:29:03;;;;;;;6.88;4.93;;;16.70;99.90;;;;;;5131253;27;20242;-69
2022/05/11 02:31:29;;;;;;;6.88;5.15;;;16.70;99.90;;;;;;5115710;28;20551;-68
2022/05/11 02:33:55;;;;;;;5.68;5.18;;;16.80;99.90;;;;;;5115379;28;20163;-67
2022/05/11 02:36:23;;;;;;;6.17;5.40;;;16.80;99.90;;;;;;5114835;28;20162;-67
2022/05/11 02:38:48;;;;;;;6.03;4.50;;;16.80;99.90;;;;;;5115100;28;20153;-67
2022/05/11 02:41:14;;;;;;;8.23;5.40;;;16.70;99.90;;;;;;5127612;27;20516;-68
2022/05/11 02:43:39;;;;;;;5.13;4.63;;;16.70;99.90;;;;;;5117906;27;20173;-66
2022/05/11 02:46:05;;;;;;;6.57;5.63;;;16.70;99.90;;;;;;5135428;27;20199;-68
2022/05/11 02:48:33;;;;;;;6.82;5.15;;;16.70;99.90;;;;;;5135561;27;20482;-66
2022/05/11 02:50:59;;;;;;;6.03;4.80;;;16.60;99.90;;;;;;5136170;27;20215;-67
2022/05/11 02:53:27;;;;;;;7.32;5.15;;;16.60;99.90;;;;;;5117021;27;20214;-67
2022/05/11 02:55:54;;;;;;;6.80;5.43;;;16.50;99.90;;;;;;5135097;27;20511;-67
2022/05/11 02:58:22;;;;;;;6.30;5.10;;;16.60;99.90;;;;;;5116812;27;20252;-67
2022/05/11 03:00:50;;;;;;;6.63;5.28;;;16.60;99.90;;;;;;5116815;27;20174;-66
2022/05/11 03:03:17;;;;;;;7.10;5.25;;;16.60;99.90;;;;;;5135466;27;20174;-66
2022/05/11 03:05:44;;;;;;;6.03;5.20;;;16.60;99.90;;;;;;5125067;27;20273;-66
2022/05/11 03:08:09;;;;;;;6.70;4.68;;;16.60;99.90;;;;;;5114358;28;20184;-69
2022/05/11 03:10:36;;;;;;;9.15;5.03;;;16.50;99.90;;;;;;5097244;28;20206;-67
2022/05/11 03:13:02;;;;;;;5.38;4.88;;;16.50;99.90;;;;;;5099626;28;20174;-66
2022/05/11 03:15:29;;;;;;;6.07;4.63;;;16.50;99.90;;;;;;5117669;28;20237;-66
2022/05/11 03:17:55;;;;;;;5.35;4.65;;;16.60;99.90;;;;;;5100664;28;20174;-67
2022/05/11 03:20:23;;;;;;;6.00;4.67;;;16.50;99.90;;;;;;5123286;28;20266;-67
2022/05/11 03:22:53;;;;;;;7.00;5.45;;;16.50;99.90;;;;;;5115573;28;20219;-67
2022/05/11 03:25:20;;;;;;;6.78;5.10;;;16.50;99.90;;;;;;5113888;28;20162;-67
2022/05/11 03:27:45;;;;;;;7.47;4.77;;;16.50;99.90;;;;;;5114171;28;20166;-66
2022/05/11 03:30:13;;;;;;;9.15;5.35;;;16.60;99.90;;;;;;5114261;28;20285;-67
2022/05/11 03:35:23;;;;;;;6.15;4.72;;;16.50;99.90;;;;;;5113634;28;20165;-65
2022/05/11 03:37:48;;;;;;;5.38;4.88;;;16.50;99.90;;;;;;5113894;28;20162;-67
2022/05/11 03:40:14;;;;;;;7.80;5.40;;;16.50;99.90;;;;;;5113978;28;20173;-66
2022/05/11 03:42:40;;;;;;;6.22;5.15;;;16.50;99.90;;;;;;5114132;28;20150;-65
2022/05/11 03:45:11;;;;;;;5.73;5.13;;;16.60;99.90;;;;;;5114312;28;20189;-66
2022/05/11 03:47:37;;;;;;;8.68;5.32;;;16.60;99.90;;;;;;5113842;28;20181;-65
2022/05/11 03:50:04;;;;;;;6.72;5.28;;;16.60;99.90;;;;;;5114115;28;20201;-67
2022/05/11 03:52:30;;;;;;;7.65;5.03;;;16.60;99.90;;;;;;5114210;28;20235;-66
2022/05/11 03:54:55;;;;;;;5.63;4.93;;;16.60;99.90;;;;;;5114165;28;20486;-65
2022/05/11 03:57:21;;;;;;;8.35;4.80;;;16.60;99.90;;;;;;5113629;28;20158;-67
2022/05/11 03:59:47;;;;;;;7.88;5.47;;;16.70;99.90;;;;;;5095905;28;20223;-66
2022/05/11 04:02:12;;;;;;;5.82;5.22;;;16.70;99.90;;;;;;5114482;28;20182;-66
2022/05/11 04:04:38;;;;;;;5.97;5.15;;;16.80;99.90;;;;;;5114016;28;20181;-66
2022/05/11 04:07:04;;;;;;;5.68;5.05;;;16.80;99.90;;;;;;5113886;28;20311;-66
2022/05/11 04:09:29;;;;;;;6.72;5.47;;;16.80;99.90;;;;;;5113474;28;20194;-66
2022/05/11 04:11:55;;;;;;;5.45;4.90;;;16.80;99.90;;;;;;5113312;28;20696;-67
2022/05/11 04:14:21;;;;;;;5.50;5.00;;;16.90;99.90;;;;;;5114201;28;20170;-67
2022/05/11 04:16:47;;;;;;;5.95;5.00;;;16.90;99.90;;;;;;5116280;28;20263;-67
2022/05/11 04:19:13;;;;;;;6.65;5.25;;;17.00;99.90;;;;;;5121112;28;20207;-67
2022/05/11 04:21:39;;;;;;;10.65;5.93;;;17.00;99.90;;;;;;5103171;28;20182;-66
2022/05/11 04:24:05;;;;;;;10.32;5.80;;;17.00;99.90;;;;;;5124160;28;20188;-66
2022/05/11 04:26:32;;;;;;;6.30;5.18;;;17.10;99.90;;;;;;5127874;28;20166;-65
2022/05/11 04:28:58;;;;;;;6.40;5.07;;;17.20;99.90;;;;;;5125789;28;20211;-69
2022/05/11 04:31:23;;;;;;;6.03;5.43;;;17.10;99.90;;;;;;5119446;28;20155;-65
2022/05/11 04:33:50;;;;;;;5.55;4.95;;;17.20;99.90;;;;;;5118135;28;20166;-66
2022/05/11 04:36:16;;;;;;;6.28;5.68;;;17.20;99.90;;;;;;5117478;28;20150;-67
2022/05/11 04:38:42;;;;;;;6.22;5.28;;;17.10;99.90;;;;;;5116913;28;20239;-67
2022/05/11 04:41:08;;;;;;;8.10;5.65;;;17.10;99.90;;;;;;5099646;28;20177;-67
2022/05/11 04:43:34;;;;;;;8.10;5.28;;;17.20;99.90;;;;;;5117182;28;20245;-68
2022/05/11 04:46:00;;;;;;;6.50;5.75;;;17.20;99.90;;;;;;5117436;28;20154;-67
2022/05/11 04:48:26;;;;;;;6.30;5.70;;;17.20;99.90;;;;;;5117181;28;20211;-66
2022/05/11 04:50:57;;;;;;;6.40;5.40;;;17.30;99.90;;;;;;5117710;28;20202;-67
2022/05/11 04:53:23;;;;;;;5.72;5.22;;;17.30;99.90;;;;;;5116579;28;20165;-65
2022/05/11 04:55:49;;;;;;;13.27;5.78;;;17.40;99.90;;;;;;5117726;28;20245;-65
2022/05/11 04:58:14;;;;;;;7.15;5.32;;;17.50;99.90;;;;;;5117006;28;20208;-66
2022/05/11 05:00:40;;;;;;;7.10;5.43;;;17.50;99.90;;;;;;5099352;28;20186;-68
2022/05/11 05:03:12;;;;;;;8.52;5.25;;;17.60;99.90;;;;;;5117001;28;20458;-66
2022/05/11 05:05:38;;;;;;;5.85;5.25;;;17.70;99.90;;;;;;5113978;27;20239;-65
2022/05/11 05:08:05;;;;;;;5.97;5.38;;;17.70;99.90;;;;;;5137387;27;20521;-67
2022/05/11 05:10:31;;;;;;;5.85;5.15;;;17.70;99.90;;;;;;5137392;27;20705;-66
2022/05/11 05:13:06;;;;;;;7.47;5.35;;;17.70;99.90;;;;;;5137452;27;20166;-66
2022/05/11 05:15:32;;;;;;;8.18;5.75;;;17.80;99.90;;;;;;5137408;27;20157;-65
2022/05/11 05:17:59;;;;;;;8.27;5.28;;;17.80;99.90;;;;;;5135836;27;20601;-65
2022/05/11 05:20:24;;;;;;;6.50;5.47;;;17.90;99.90;;;;;;5141930;27;20165;-66
2022/05/11 05:22:50;;;;;;;7.22;5.57;;;17.90;99.90;;;;;;5145126;27;20213;-67
2022/05/11 05:25:16;;;;;;;6.07;5.03;;;17.90;99.90;;;;;;5145739;27;20176;-66
2022/05/11 05:27:41;;;;;;;10.70;5.53;;;18.10;99.90;;;;;;5148266;27;20158;-66
2022/05/11 05:32:52;;;;;;;9.43;5.57;;;18.30;99.90;;;;;;5136860;27;20211;-66
2022/05/11 05:35:19;;;;;;;7.25;5.45;;;18.40;99.90;;;;;;5136537;27;20161;-66
2022/05/11 05:37:45;;;;;;;8.45;5.40;;;18.50;99.90;;;;;;5136243;27;20547;-66
2022/05/11 05:40:11;;;;;;;7.60;5.55;;;18.70;99.90;;;;;;5137471;27;20170;-67
2022/05/11 05:42:38;;;;;;;7.57;5.28;;;18.80;99.90;;;;;;5135333;27;20177;-67
2022/05/11 05:45:05;;;;;;;6.15;5.47;;;18.90;99.90;;;;;;5136856;27;20268;-67
2022/05/11 05:47:31;;;;;;;11.35;5.85;;;19.00;99.90;;;;;;5136624;27;20181;-67
2022/05/11 05:49:57;;;;;;;9.00;5.50;;;19.00;99.90;;;;;;5136327;27;20208;-67
2022/05/11 05:52:25;;;;;;;7.15;5.20;;;19.10;99.90;;;;;;5135788;27;20206;-67
2022/05/11 05:54:52;;;;;;;7.15;5.30;;;19.20;99.90;;;;;;5136190;27;20521;-67
2022/05/11 05:57:18;;;;;;;6.00;5.03;;;19.30;99.90;;;;;;5135920;27;20157;-66
2022/05/11 05:59:45;;;;;;;6.20;4.68;;;19.50;99.90;;;;;;5135967;27;20161;-67
2022/05/11 06:02:15;;;;;;;13.20;5.22;;;19.60;99.90;;;;;;5136215;27;20234;-66
2022/05/11 06:04:43;;;;;;;7.68;4.85;;;19.70;99.90;;;;;;5134276;27;20177;-66
2022/05/11 06:07:11;;;;;;;5.28;4.80;;;19.80;99.90;;;;;;5116533;28;20519;-68
2022/05/11 06:09:38;;;;;;;10.40;5.03;;;20.00;99.90;;;;;;5116559;28;20202;-66
2022/05/11 06:12:05;;;;;;;5.93;4.65;;;20.10;99.90;;;;;;5113268;28;20188;-68
2022/05/11 06:14:31;;;;;;;5.88;4.88;;;20.20;99.90;;;;;;5116355;28;20169;-67
2022/05/11 06:16:59;;;;;;;5.78;5.18;;;20.30;99.90;;;;;;5116872;28;20191;-67
2022/05/11 06:19:24;;;;;;;8.32;5.55;;;20.50;99.90;;;;;;5116958;28;20190;-66
2022/05/11 06:21:50;;;;;;;6.07;4.57;;;20.80;99.90;;;;;;5116459;28;20162;-66
2022/05/11 06:24:16;;;;;;;7.10;4.45;;;20.90;99.90;;;;;;5115871;28;20177;-66
2022/05/11 06:26:41;;;;;;;8.77;4.93;;;21.00;99.90;;;;;;5115492;28;20202;-66
2022/05/11 06:29:08;;;;;;;12.10;5.20;;;21.20;99.90;;;;;;5115455;28;20667;-67
2022/05/11 06:31:33;;;;;;;8.18;4.13;;;21.40;99.90;;;;;;5116942;28;20261;-66
2022/05/11 06:34:00;;;;;;;12.50;4.40;;;21.60;99.90;;;;;;5116865;28;20193;-67
2022/05/11 06:36:25;;;;;;;5.05;3.92;;;21.60;99.90;;;;;;5115615;28;20231;-67
2022/05/11 06:38:53;;;;;;;10.00;4.43;;;21.70;99.90;;;;;;5115834;28;20162;-67
2022/05/11 06:41:22;;;;;;;6.22;4.10;;;21.80;99.90;;;;;;5114926;28;20189;-66
2022/05/11 06:43:50;;;;;;;5.55;4.18;;;21.90;99.90;;;;;;5114459;28;20158;-68
2022/05/11 06:46:16;;;;;;;4.20;3.80;;;22.00;99.90;;;;;;5114739;28;20158;-68
2022/05/11 06:48:41;;;;;;;4.30;3.90;;;21.90;99.90;;;;;;5115425;28;20467;-66
2022/05/11 06:51:07;;;;;;;7.15;4.13;;;22.00;99.90;;;;;;5096696;28;20213;-67
2022/05/11 06:59:20;;;;;;;8.55;3.92;;;22.10;99.90;;;;;;5114597;28;20590;-68
2022/05/11 07:01:47;;;;;;;5.72;3.80;;;22.30;99.90;;;;;;5115401;28;20715;-67
2022/05/11 07:04:13;;;;;;;5.95;4.28;;;22.40;99.90;;;;;;5114147;28;20249;-68
2022/05/11 07:06:39;;;;;;;7.25;4.45;;;22.40;99.90;;;;;;5131570;27;20320;-67
2022/05/11 07:09:05;;;;;;;5.28;4.10;;;22.40;99.90;;;;;;5116590;27;20181;-68
2022/05/11 07:14:14;;;;;;;4.32;3.90;;;22.60;99.90;;;;;;5134943;27;20206;-67
2022/05/11 07:16:40;;;;;;;4.55;4.07;;;22.60;99.90;;;;;;5102824;28;20178;-69
2022/05/11 07:19:06;;;;;;;6.07;3.75;;;22.60;99.90;;;;;;5113732;28;20485;-68
2022/05/11 07:21:32;;;;;;;4.60;3.65;;;22.70;99.90;;;;;;5114622;28;20170;-67
2022/05/11 07:23:58;;;;;;;7.30;3.90;;;22.80;99.90;;;;;;5123452;28;20250;-68
2022/05/11 07:26:24;;;;;;;4.90;4.28;;;22.90;99.90;;;;;;5122010;28;20162;-67
2022/05/11 07:28:50;;;;;;;5.88;4.47;;;23.00;99.90;;;;;;5108451;28;20253;-67
2022/05/11 07:31:15;;;;;;;11.93;7.03;;;23.10;99.90;;;;;;5119933;28;20229;-67
2022/05/11 07:33:41;;;;;;;5.75;4.32;;;23.20;99.90;;;;;;5113485;28;20237;-67
2022/05/11 07:36:07;;;;;;;4.60;3.33;;;23.30;99.90;;;;;;5113890;28;20162;-68
2022/05/11 07:38:37;;;;;;;5.03;3.47;;;23.40;98.90;;;;;;5114075;28;20177;-68
2022/05/11 07:41:05;;;;;;;6.78;3.80;;;23.50;98.90;;;;;;5114050;28;20187;-72
2022/05/11 07:43:30;;;;;;;4.20;3.42;;;23.50;99.40;;;;;;5098093;28;20170;-68
2022/05/11 07:45:56;;;;;;;9.23;3.38;;;23.60;98.10;;;;;;5116523;28;20625;-67
2022/05/11 07:48:22;;;;;;;5.53;3.50;;;23.70;98.20;;;;;;5116080;28;20158;-67
2022/05/11 07:50:48;;;;;;;3.50;3.20;;;24.00;98.70;;;;;;5095813;28;20202;-66
2022/05/11 07:53:14;;;;;;;7.20;3.47;;;24.10;97.80;;;;;;5113307;28;20549;-66
2022/05/11 07:55:39;;;;;;;7.78;3.90;;;24.30;97.40;;;;;;5113718;28;20166;-66
2022/05/11 08:00:49;;;;;;;6.03;3.35;;;24.40;95.80;;;;;;5114621;28;20604;-67
2022/05/11 08:03:15;;;;;;;6.63;3.83;;;24.30;95.80;;;;;;5118326;28;20178;-67
2022/05/11 08:05:41;;;;;;;4.80;3.42;;;24.20;95.70;;;;;;5126399;27;20221;-65
2022/05/11 08:08:08;;;;;;;8.05;3.42;;;24.30;95.20;;;;;;5138134;27;20248;-66
2022/05/11 08:10:40;;;;;;;3.80;3.20;;;24.60;94.50;;;;;;5138261;27;20259;-66
2022/05/11 08:13:07;;;;;;;6.28;3.75;;;24.80;95.40;;;;;;5137687;27;20153;-68
2022/05/11 08:15:39;;;;;;;3.50;3.13;;;25.10;93.40;;;;;;5138170;27;20165;-65
2022/05/11 08:18:06;;;;;;;6.18;3.25;;;25.00;92.60;;;;;;5137903;27;20176;-65
2022/05/11 08:20:36;;;;;;;3.75;3.40;;;24.80;91.80;;;;;;5138013;27;20335;-67
2022/05/11 08:23:04;;;;;;;3.88;3.22;;;24.80;92.40;;;;;;5137947;27;20158;-67
2022/05/11 08:25:35;;;;;;;3.67;3.30;;;24.90;91.90;;;;;;5139751;27;20210;-69
2022/05/11 08:28:02;;;;;;;7.60;2.97;;;25.00;91.00;;;;;;5137552;27;20613;-66
2022/05/11 08:33:21;;;;;;;8.00;3.20;;;25.40;85.70;;;;;;5137055;27;20258;-66
2022/05/11 08:35:49;;;;;;;5.88;3.15;;;25.40;86.20;;;;;;5118819;27;20174;-66
2022/05/11 08:38:15;;;;;;;8.30;3.15;;;25.40;83.70;;;;;;5153393;27;20221;-66
2022/05/11 08:40:50;;;;;;;5.35;3.22;;;25.40;80.50;;;;;;5137851;27;20498;-67
2022/05/11 08:43:17;;;;;;;4.65;2.95;;;25.60;81.60;;;;;;5137272;27;20164;-66
2022/05/11 08:46:10;;;;;;;3.67;3.05;;;25.90;80.80;;;;;;5137513;27;20166;-67
2022/05/11 08:48:58;;;;;;;3.50;3.20;;;25.80;79.00;;;;;;5137557;27;20185;-68
2022/05/11 08:51:45;;;;;;;3.65;3.03;;;26.00;77.90;;;;;;5137028;27;20243;-68
2022/05/11 08:54:27;;;;;;;4.78;3.20;;;26.10;75.70;;;;;;5137379;27;20169;-67
2022/05/11 08:56:55;;;;;;;7.97;3.22;;;26.00;74.90;;;;;;5153658;27;20234;-67
2022/05/11 08:59:24;;;;;;;4.45;2.92;;;25.90;73.50;;;;;;5137987;27;20193;-68
2022/05/11 09:01:51;;;;;;;5.13;2.90;;;26.10;74.80;;;;;;5140167;27;20173;-68
2022/05/11 09:04:22;;;;;;;3.88;2.70;;;26.40;72.00;;;;;;5145334;27;20288;-67
2022/05/11 09:06:48;;;;;;;3.45;3.13;;;26.50;70.00;;;;;;5140789;27;20601;-67
2022/05/11 09:09:17;;;;;;;3.20;2.72;;;26.40;69.50;;;;;;5138734;27;20223;-69
2022/05/11 09:11:48;;;;;;;4.55;2.92;;;26.40;69.10;;;;;;5117543;28;20198;-69
2022/05/11 09:14:18;;;;;;;8.88;5.68;;;26.40;68.20;;;;;;5136895;27;20623;-67
2022/05/11 09:16:49;;;;;;;3.13;2.83;;;26.30;69.00;;;;;;5137406;27;20162;-67
2022/05/11 09:19:35;;;;;;;3.30;2.92;;;26.40;69.50;;;;;;5118904;27;20550;-68
2022/05/11 09:22:17;;;;;;;4.78;2.90;;;26.40;68.50;;;;;;5137587;27;20223;-66
2022/05/11 09:24:53;;;;;;;4.35;3.30;;;26.30;69.30;;;;;;5137534;27;20270;-68
2022/05/11 09:27:28;;;;;;;5.40;2.78;;;26.40;68.30;;;;;;5138612;27;20244;-69
2022/05/11 09:30:01;;;;;;;6.50;2.63;;;26.60;67.30;;;;;;5137869;27;20515;-66
2022/05/11 09:32:38;;;;;;;7.25;2.65;;;26.80;67.80;;;;;;5137192;27;20608;-67
2022/05/11 09:35:19;;;;;;;8.95;2.90;;;26.60;68.50;;;;;;5117745;27;20177;-68
2022/05/11 09:37:54;;;;;;;4.53;3.20;;;26.70;65.60;;;;;;5136135;27;20169;-67
2022/05/11 09:40:21;;;;;;;5.82;2.97;;;26.60;66.30;;;;;;5136784;27;20172;-68
2022/05/11 09:42:58;;;;;;;7.68;2.90;;;26.50;66.80;;;;;;5118555;27;20276;-70
2022/05/11 09:45:40;;;;;;;3.38;2.80;;;26.70;66.90;;;;;;5136826;27;20161;-70
2022/05/11 09:48:16;;;;;;;3.63;3.28;;;26.80;65.00;;;;;;5137751;27;20267;-67
2022/05/11 09:50:42;;;;;;;5.53;3.55;;;27.00;65.10;;;;;;5136909;27;20192;-68
2022/05/11 09:53:34;;;;;;;4.50;2.80;;;27.30;65.70;;;;;;5135926;27;20188;-70
2022/05/11 09:56:36;;;;;;;3.88;2.92;;;27.40;63.30;;;;;;5136074;27;20169;-67
2022/05/11 09:59:18;;;;;;;4.78;3.28;;;27.30;63.00;;;;;;5072700;28;20225;-67
2022/05/11 10:01:46;;;;;;;3.35;3.03;;;27.30;63.10;;;;;;5056111;28;20192;-70
2022/05/11 10:04:13;;;;;;;7.90;2.97;;;27.40;63.60;;;;;;5072317;28;20163;-70
2022/05/11 10:06:49;;;;;;;4.65;3.50;;;27.40;63.90;;;;;;5072127;28;20223;-70
2022/05/11 10:09:16;;;;;;;4.60;3.13;;;27.80;64.20;;;;;;5072455;28;20217;-70
2022/05/11 10:11:47;;;;;;;4.50;3.03;;;27.70;63.60;;;;;;5072401;28;20275;-70
2022/05/11 10:23:25;;;;;;;3.20;2.90;;;27.90;60.10;;;;;;5051862;28;20214;-71
2022/05/11 10:26:18;;;;;;;3.92;3.10;;;28.00;59.60;;;;;;5029978;28;20574;-70
2022/05/11 10:29:07;;;;;;;3.22;2.92;;;28.30;59.90;;;;;;5052943;28;20164;-70
2022/05/11 10:32:24;;;;;;;5.93;2.78;;;28.50;59.00;;;;;;5054679;28;20204;-69
2022/05/11 10:35:08;;;;;;;4.80;3.38;;;28.50;57.60;;;;;;5062824;28;20248;-68
2022/05/11 10:37:56;;;;;;;8.52;2.92;;;28.50;57.50;;;;;;5096874;28;20209;-69
2022/05/11 10:41:01;;;;;;;6.25;2.58;;;28.30;56.90;;;;;;5097459;28;20246;-69
2022/05/11 10:43:48;;;;;;;5.47;2.95;;;28.20;57.50;;;;;;5094654;28;20159;-70
2022/05/11 10:46:27;;;;;;;3.25;2.95;;;28.40;57.00;;;;;;5094288;28;20171;-70
2022/05/11 10:49:25;;;;;;;3.40;3.10;;;28.20;55.70;;;;;;5094362;28;20189;-70
2022/05/11 10:51:54;;;;;;;7.30;3.10;;;28.40;56.60;;;;;;5072011;28;20199;-70
2022/05/11 10:54:50;;;;;;;3.33;3.03;;;28.50;55.30;;;;;;5094265;28;20159;-70
2022/05/11 10:57:24;;;;;;;4.85;2.92;;;28.60;54.30;;;;;;5075736;28;20186;-70
2022/05/11 11:00:06;;;;;;;3.85;2.70;;;28.90;53.60;;;;;;5094106;28;20279;-70
2022/05/11 11:02:56;;;;;;;4.45;2.85;;;29.00;53.80;;;;;;5094320;28;20603;-69
2022/05/11 11:05:40;;;;;;;9.48;3.03;;;29.20;52.00;;;;;;5100949;28;20222;-70
2022/05/11 11:08:18;;;;;;;9.65;3.10;;;29.10;52.20;;;;;;5114699;28;20237;-71
2022/05/11 11:10:56;;;;;;;2.83;2.53;;;29.10;51.90;;;;;;5115606;28;20202;-71
2022/05/11 11:14:00;;;;;;;5.28;3.28;;;29.00;50.70;;;;;;5115443;28;20558;-71
2022/05/11 11:16:31;;;;;;;3.35;2.85;;;29.10;51.60;;;;;;5106514;28;20205;-70
2022/05/11 11:18:58;;;;;;;9.48;3.17;;;29.10;51.20;;;;;;5121361;28;20191;-70
2022/05/11 11:21:24;;;;;;;3.72;2.80;;;29.20;51.30;;;;;;5122902;28;20196;-69
2022/05/11 11:24:17;;;;;;;7.38;2.83;;;29.20;51.90;;;;;;5120827;28;20154;-69
2022/05/11 11:26:45;;;;;;;4.75;3.10;;;29.20;51.60;;;;;;5135907;27;20197;-70
2022/05/11 11:29:11;;;;;;;4.60;2.75;;;29.20;51.10;;;;;;5120931;28;20173;-71
2022/05/11 11:31:56;;;;;;;3.58;2.83;;;28.40;51.00;;;;;;5121218;28;20162;-70
2022/05/11 11:34:25;;;;;;;4.63;2.97;;;28.30;52.70;;;;;;5120791;28;20242;-69
2022/05/11 11:36:51;;;;;;;3.15;2.78;;;28.80;51.60;;;;;;5117037;28;20158;-70
2022/05/11 11:39:44;;;;;;;13.15;3.22;;;29.10;50.90;;;;;;5114319;28;20242;-70
2022/05/11 11:42:11;;;;;;;3.17;2.88;;;29.10;51.30;;;;;;5114929;28;20509;-70
2022/05/11 11:44:46;;;;;;;3.08;2.65;;;29.20;51.00;;;;;;5117541;28;20163;-71
2022/05/11 11:47:35;;;;;;;4.13;2.83;;;29.30;50.20;;;;;;5114520;28;20177;-71
2022/05/11 11:50:02;;;;;;;9.25;2.80;;;29.40;49.80;;;;;;5117585;28;20212;-70
2022/05/11 11:52:47;;;;;;;4.95;2.90;;;29.50;49.50;;;;;;5123773;28;20169;-72
2022/05/11 11:55:24;;;;;;;4.90;2.58;;;29.20;49.10;;;;;;5117066;28;20640;-70
2022/05/11 11:57:56;;;;;;;4.25;2.78;;;29.50;49.80;;;;;;5113946;28;20210;-71
2022/05/11 12:00:59;;;;;;;4.13;2.70;;;29.70;49.40;;;;;;5113153;28;20618;-70
2022/05/11 12:03:29;;;;;;;6.22;3.00;;;29.70;48.90;;;;;;5113639;28;20667;-71
2022/05/11 12:15:01;;;;;;;3.17;2.50;;;29.50;48.60;;;;;;5113312;28;20228;-71
2022/05/11 12:17:05;;;;;;;6.00;2.70;;;29.60;47.90;;;;;;5113787;28;20616;-71
2022/05/11 12:19:34;;;;;;;3.72;2.55;;;29.40;47.00;;;;;;5113319;28;20548;-71
2022/05/11 12:22:14;;;;;;;6.07;2.90;;;29.30;46.80;;;;;;5113088;28;20621;-71
2022/05/11 12:24:44;;;;;;;4.30;2.75;;;29.50;47.10;;;;;;5113816;28;20158;-72
2022/05/11 12:27:24;;;;;;;6.03;2.70;;;29.60;47.20;;;;;;5113183;28;20170;-71
2022/05/11 12:30:04;;;;;;;5.07;3.00;;;29.80;46.60;;;;;;5113341;28;20212;-71
2022/05/11 12:32:37;;;;;;;4.18;2.70;;;30.00;46.60;;;;;;5113397;28;20172;-72
2022/05/11 12:35:15;;;;;;;3.85;2.83;;;29.70;46.70;;;;;;5111854;27;20185;-72
2022/05/11 12:37:41;;;;;;;8.30;2.55;;;29.20;46.80;;;;;;5113334;28;20283;-70
2022/05/11 12:40:19;;;;;;;6.43;2.97;;;29.50;46.60;;;;;;5113046;28;20590;-70
2022/05/11 12:42:44;;;;;;;3.22;2.28;;;30.00;46.30;;;;;;5112603;28;20555;-71
2022/05/11 12:45:35;;;;;;;2.70;2.50;;;29.80;45.30;;;;;;5113077;28;20154;-71
2022/05/11 12:48:03;;;;;;;3.45;2.70;;;29.90;45.40;;;;;;5115973;28;20190;-71
2022/05/11 12:50:38;;;;;;;5.30;2.70;;;29.90;44.90;;;;;;5132752;27;20206;-72
2022/05/11 12:53:06;;;;;;;5.03;2.97;;;30.10;45.60;;;;;;5137101;27;20622;-71
2022/05/11 12:55:35;;;;;;;5.18;2.50;;;30.10;45.10;;;;;;5119970;28;20612;-71
2022/05/11 12:58:02;;;;;;;3.35;2.70;;;30.20;45.10;;;;;;5119125;28;20223;-72
2022/05/11 13:00:30;;;;;;;6.28;3.30;;;30.10;44.50;;;;;;5119924;28;20622;-73
2022/05/11 13:02:56;;;;;;;6.90;3.25;;;30.10;43.60;;;;;;5118197;28;20182;-71
2022/05/11 13:05:23;;;;;;;4.65;2.50;;;30.20;44.80;;;;;;5121481;27;20233;-73
2022/05/11 13:08:00;;;;;;;6.70;3.03;;;30.30;44.40;;;;;;5119408;27;20493;-71
2022/05/11 13:10:32;;;;;;;9.75;3.38;;;30.20;44.00;;;;;;5137012;27;20197;-71
2022/05/11 13:12:59;;;;;;;4.22;2.72;;;30.50;44.10;;;;;;5136913;27;20640;-73
2022/05/11 13:15:38;;;;;;;6.63;2.70;;;30.30;43.90;;;;;;5136508;27;20158;-72
2022/05/11 13:18:06;;;;;;;7.85;2.65;;;30.10;43.80;;;;;;5137218;27;20171;-73
2022/05/11 13:20:36;;;;;;;5.13;2.70;;;30.50;44.40;;;;;;5145552;27;20157;-71
2022/05/11 13:23:05;;;;;;;2.65;2.45;;;30.20;44.10;;;;;;5145262;27;20168;-73
2022/05/11 13:26:05;;;;;;;2.97;2.65;;;30.20;43.80;;;;;;5148575;27;20252;-73
2022/05/11 13:28:58;;;;;;;2.75;2.45;;;30.20;44.00;;;;;;5116406;27;20181;-71
2022/05/11 13:31:28;;;;;;;5.78;2.55;;;30.30;44.10;;;;;;5136070;27;20193;-72
2022/05/11 13:33:55;;;;;;;2.50;2.30;;;30.50;43.50;;;;;;5136913;27;20514;-72
2022/05/11 13:36:27;;;;;;;6.15;2.78;;;30.70;44.20;;;;;;5137248;27;20295;-72
2022/05/11 13:39:03;;;;;;;4.93;2.70;;;30.80;43.60;;;;;;5136662;27;20168;-71
2022/05/11 13:41:37;;;;;;;5.47;2.55;;;30.60;43.90;;;;;;5136496;27;20172;-72
2022/05/11 13:44:23;;;;;;;5.32;2.85;;;30.70;44.00;;;;;;5136018;27;20161;-72
2022/05/11 13:49:40;;;;;;;7.50;3.00;;;30.60;44.40;;;;;;5136140;27;20732;-71